Time;durP1;ratioP1;P1;durP2;ratioP2;P2;SDS_P1;SDS_P2;PMS_P1;PMS_P2;Temp;Humidity;BMP_temperature;BMP_pressure;BME280_temperature;BME280_humidity;BME280_pressure;Samples;Min_cycle;Max_cycle;Signal;HPM_P1;HPM_P2
2023/01/30 04:01:07;;;;;;;2.05;1.35;;;9.90;50.80;;;;;;5528354;23;45790;-62
2023/01/30 04:03:33;;;;;;;2.30;1.02;;;9.90;50.80;;;;;;4907557;23;45691;-59
2023/01/30 04:05:58;;;;;;;2.22;1.40;;;9.90;50.70;;;;;;4877879;28;44948;-57
2023/01/30 04:08:24;;;;;;;1.98;1.45;;;9.90;50.70;;;;;;4883423;28;46059;-59
2023/01/30 04:10:49;;;;;;;1.50;1.20;;;9.80;50.70;;;;;;4884797;28;46850;-59
2023/01/30 04:13:15;;;;;;;1.45;1.27;;;9.90;50.70;;;;;;4887473;28;45823;-58
2023/01/30 04:15:40;;;;;;;1.48;1.20;;;9.80;50.60;;;;;;4883330;29;46112;-58
2023/01/30 04:18:06;;;;;;;1.38;1.08;;;9.80;50.60;;;;;;4867955;29;46192;-55
2023/01/30 04:20:32;;;;;;;1.75;1.20;;;9.80;50.60;;;;;;4886751;29;45717;-58
2023/01/30 04:22:57;;;;;;;1.73;1.30;;;9.90;50.70;;;;;;4883331;29;45400;-62
2023/01/30 04:25:23;;;;;;;1.70;1.45;;;9.80;50.60;;;;;;4889746;28;45698;-60
2023/01/30 04:27:48;;;;;;;1.73;1.30;;;9.90;50.70;;;;;;4864297;29;45779;-61
2023/01/30 04:30:14;;;;;;;1.27;1.17;;;9.90;50.70;;;;;;4886060;29;46871;-59
2023/01/30 04:32:40;;;;;;;2.47;1.40;;;9.90;50.70;;;;;;4888672;28;45548;-60
2023/01/30 04:35:05;;;;;;;1.35;1.13;;;9.90;50.70;;;;;;4888302;29;45713;-60
2023/01/30 04:37:31;;;;;;;1.90;1.20;;;9.80;50.60;;;;;;4892037;28;44845;-59
2023/01/30 04:39:57;;;;;;;2.17;1.30;;;9.90;50.70;;;;;;4888580;28;46888;-56
2023/01/30 04:42:22;;;;;;;1.50;1.20;;;9.90;50.60;;;;;;4900262;28;45611;-58
2023/01/30 04:44:48;;;;;;;2.50;1.30;;;9.80;50.60;;;;;;4895569;28;45243;-55
2023/01/30 04:47:13;;;;;;;1.67;1.20;;;9.90;50.60;;;;;;4900760;28;45358;-57
2023/01/30 04:49:39;;;;;;;1.95;1.58;;;9.90;50.60;;;;;;4893227;28;45486;-60
2023/01/30 04:52:05;;;;;;;1.48;1.27;;;9.80;50.50;;;;;;4894332;28;44695;-59
2023/01/30 04:54:30;;;;;;;1.77;1.20;;;9.80;50.50;;;;;;4899103;28;45502;-56
2023/01/30 04:56:56;;;;;;;1.50;1.30;;;9.80;50.50;;;;;;4899994;28;45288;-57
2023/01/30 04:59:22;;;;;;;1.60;1.33;;;9.90;50.60;;;;;;4894690;28;45592;-58
2023/01/30 05:01:47;;;;;;;2.10;1.40;;;9.90;50.50;;;;;;4886402;28;45561;-57
2023/01/30 05:04:13;;;;;;;1.40;1.20;;;9.90;50.50;;;;;;4916565;28;44777;-61
2023/01/30 05:06:38;;;;;;;2.20;1.50;;;9.80;50.40;;;;;;4924104;28;45336;-61
2023/01/30 05:09:04;;;;;;;1.40;1.25;;;9.90;50.50;;;;;;4924517;28;46108;-64
2023/01/30 05:11:31;;;;;;;1.83;1.27;;;9.90;50.50;;;;;;4910075;28;45550;-56
2023/01/30 05:13:56;;;;;;;1.35;1.20;;;9.80;50.50;;;;;;4904395;28;45510;-58
2023/01/30 05:16:22;;;;;;;1.42;1.20;;;9.90;50.60;;;;;;4902310;28;46265;-59
2023/01/30 05:18:48;;;;;;;1.20;1.10;;;9.90;51.10;;;;;;4902558;28;46967;-59
2023/01/30 05:21:15;;;;;;;1.40;1.15;;;9.80;50.50;;;;;;4886517;28;45070;-59
2023/01/30 05:23:41;;;;;;;1.73;1.25;;;9.80;50.50;;;;;;4903387;28;44961;-56
2023/01/30 05:26:06;;;;;;;1.75;1.45;;;9.80;50.50;;;;;;4901289;28;45352;-58
2023/01/30 05:28:32;;;;;;;1.85;1.40;;;9.90;50.50;;;;;;4901802;28;45716;-59
2023/01/30 05:31:08;;;;;;;2.33;1.10;;;9.80;50.50;;;;;;4906934;28;45218;-60
2023/01/30 05:33:34;;;;;;;1.05;0.95;;;9.80;50.50;;;;;;4901983;28;45022;-58
2023/01/30 05:35:59;;;;;;;1.95;1.30;;;9.80;50.50;;;;;;4903377;28;45637;-59
2023/01/30 05:38:25;;;;;;;1.60;1.35;;;9.80;50.50;;;;;;4904016;28;45278;-59
2023/01/30 05:41:01;;;;;;;1.65;1.27;;;9.90;50.50;;;;;;4902824;28;45525;-59
2023/01/30 05:43:26;;;;;;;1.45;1.35;;;9.90;50.50;;;;;;4905599;28;45347;-58
2023/01/30 05:45:53;;;;;;;2.45;1.20;;;9.80;50.40;;;;;;4902620;28;45946;-59
2023/01/30 05:48:19;;;;;;;1.90;1.38;;;9.80;50.40;;;;;;4909101;28;46214;-59
2023/01/30 05:50:44;;;;;;;1.30;1.10;;;9.90;50.50;;;;;;4904891;28;45161;-59
2023/01/30 05:53:10;;;;;;;1.20;1.10;;;9.80;50.40;;;;;;4873674;28;45848;-59
2023/01/30 05:55:36;;;;;;;1.50;1.13;;;9.80;50.40;;;;;;4906204;28;45377;-59
2023/01/30 05:58:01;;;;;;;1.83;1.40;;;9.80;50.30;;;;;;4892795;28;45496;-58
2023/01/30 06:00:27;;;;;;;1.83;1.45;;;9.80;50.30;;;;;;4905521;28;45338;-58
2023/01/30 06:02:52;;;;;;;1.50;1.30;;;9.80;50.30;;;;;;4902308;28;45576;-58
2023/01/30 06:05:18;;;;;;;2.65;1.38;;;9.80;50.30;;;;;;4904988;28;44918;-57
2023/01/30 06:07:44;;;;;;;1.45;1.30;;;9.80;50.40;;;;;;4907630;28;46663;-60
2023/01/30 06:10:10;;;;;;;1.58;1.15;;;9.80;50.40;;;;;;4904919;28;45612;-58
2023/01/30 06:12:35;;;;;;;1.52;1.20;;;9.80;50.30;;;;;;4904705;28;45135;-57
2023/01/30 06:15:01;;;;;;;2.25;1.38;;;9.80;50.30;;;;;;4904607;28;45121;-57
2023/01/30 06:17:27;;;;;;;2.00;1.30;;;9.80;50.30;;;;;;4903765;28;45955;-59
2023/01/30 06:19:53;;;;;;;1.23;1.00;;;9.80;50.40;;;;;;4905203;28;45174;-59
2023/01/30 06:22:18;;;;;;;1.63;1.13;;;9.80;50.40;;;;;;4902313;28;45057;-56
2023/01/30 06:24:44;;;;;;;1.67;1.38;;;9.80;50.40;;;;;;4904795;28;45742;-59
2023/01/30 06:27:09;;;;;;;1.20;1.10;;;9.80;50.40;;;;;;4904105;28;45776;-57
2023/01/30 06:29:35;;;;;;;1.58;1.30;;;9.80;50.40;;;;;;4887780;28;45748;-59
2023/01/30 06:32:01;;;;;;;1.40;1.30;;;9.80;50.30;;;;;;4906390;28;45133;-61
2023/01/30 06:34:26;;;;;;;2.33;1.52;;;9.80;50.30;;;;;;4903212;28;44909;-56
2023/01/30 06:36:52;;;;;;;1.00;0.80;;;9.80;50.40;;;;;;4905626;28;45523;-58
2023/01/30 06:39:17;;;;;;;1.38;1.20;;;9.80;50.30;;;;;;4907495;28;45224;-58
2023/01/30 06:41:43;;;;;;;1.30;1.10;;;9.80;50.30;;;;;;4905082;28;45402;-58
2023/01/30 06:44:08;;;;;;;1.33;1.23;;;9.80;50.30;;;;;;4906186;28;46005;-55
2023/01/30 06:46:34;;;;;;;1.67;1.25;;;9.80;50.40;;;;;;4905726;28;46397;-57
2023/01/30 06:48:59;;;;;;;1.92;1.40;;;9.80;50.30;;;;;;4900618;28;45438;-60
2023/01/30 06:51:26;;;;;;;2.55;1.95;;;9.80;50.30;;;;;;4900779;28;45526;-60
2023/01/30 06:53:52;;;;;;;5.75;4.25;;;9.80;50.10;;;;;;4904162;28;44842;-60
2023/01/30 06:56:18;;;;;;;7.90;4.32;;;9.50;49.80;;;;;;4888470;28;48126;-60
2023/01/30 06:58:44;;;;;;;6.55;3.92;;;9.40;50.30;;;;;;4902100;28;44686;-58
2023/01/30 07:01:10;;;;;;;7.07;3.92;;;9.40;50.30;;;;;;4901936;28;45620;-59
2023/01/30 07:03:35;;;;;;;5.82;3.97;;;9.40;50.30;;;;;;4903299;28;45839;-59
2023/01/30 07:06:01;;;;;;;6.43;4.30;;;9.60;50.40;;;;;;4904147;28;45580;-59
2023/01/30 07:08:26;;;;;;;4.78;3.80;;;9.80;50.10;;;;;;4905299;28;48073;-59
2023/01/30 07:10:52;;;;;;;6.45;3.63;;;10.10;49.80;;;;;;4894212;28;46067;-59
2023/01/30 07:13:17;;;;;;;6.82;3.75;;;10.30;49.40;;;;;;4902805;28;45554;-59
2023/01/30 07:15:43;;;;;;;4.85;3.22;;;10.60;49.10;;;;;;4907402;28;46341;-61
2023/01/30 07:18:09;;;;;;;4.15;3.03;;;10.80;48.70;;;;;;4909446;28;45217;-61
2023/01/30 07:20:34;;;;;;;4.03;2.90;;;11.00;48.50;;;;;;4914172;28;45372;-60
2023/01/30 07:23:00;;;;;;;4.07;2.70;;;11.20;48.20;;;;;;4889217;28;45380;-60
2023/01/30 07:25:26;;;;;;;4.68;2.55;;;11.40;48.00;;;;;;4892093;28;47976;-61
2023/01/30 07:27:53;;;;;;;3.30;2.30;;;11.60;47.90;;;;;;4887768;28;45296;-59
2023/01/30 07:30:18;;;;;;;6.35;2.60;;;11.80;47.80;;;;;;4902703;28;45184;-59
2023/01/30 07:32:48;;;;;;;4.65;2.72;;;12.00;47.60;;;;;;4903209;28;45366;-58
2023/01/30 07:35:13;;;;;;;4.55;2.40;;;12.10;47.50;;;;;;4890346;28;45656;-56
2023/01/30 07:37:39;;;;;;;3.45;2.30;;;12.20;47.30;;;;;;4908287;28;45432;-57
2023/01/30 07:40:05;;;;;;;3.10;2.25;;;12.30;47.50;;;;;;4904117;28;45217;-58
2023/01/30 07:42:31;;;;;;;3.08;2.25;;;12.30;47.50;;;;;;4904563;28;45271;-57
2023/01/30 07:44:56;;;;;;;2.38;2.00;;;12.50;47.50;;;;;;4904895;28;46182;-62
2023/01/30 07:47:22;;;;;;;2.42;1.80;;;12.70;47.40;;;;;;4921347;28;44813;-59
2023/01/30 07:49:47;;;;;;;2.28;1.90;;;12.90;47.20;;;;;;4907652;28;46430;-57
2023/01/30 07:52:13;;;;;;;2.92;2.03;;;13.10;47.00;;;;;;4907077;28;45329;-60
2023/01/30 07:54:38;;;;;;;3.30;1.88;;;13.20;46.80;;;;;;4906416;28;45244;-60
2023/01/30 07:57:04;;;;;;;2.28;1.65;;;13.40;46.60;;;;;;4906449;28;45491;-60
2023/01/30 07:59:30;;;;;;;2.28;1.40;;;13.60;46.50;;;;;;4908696;28;45050;-58
2023/01/30 08:01:57;;;;;;;3.38;1.67;;;13.80;46.40;;;;;;4905790;28;44801;-58
2023/01/30 08:04:22;;;;;;;3.38;1.80;;;13.90;46.20;;;;;;4907135;28;45315;-58
2023/01/30 08:06:48;;;;;;;2.67;1.58;;;14.10;46.10;;;;;;4907196;28;44710;-57
2023/01/30 08:09:14;;;;;;;2.40;1.52;;;14.30;46.00;;;;;;4904275;28;45485;-59
2023/01/30 08:11:39;;;;;;;1.92;1.70;;;14.40;45.80;;;;;;4907416;28;45202;-57
2023/01/30 08:14:05;;;;;;;2.35;1.30;;;14.60;45.70;;;;;;4908003;28;45688;-59
2023/01/30 08:16:31;;;;;;;2.15;1.55;;;14.70;45.60;;;;;;4903454;28;47048;-59
2023/01/30 08:18:57;;;;;;;2.13;1.42;;;14.90;45.50;;;;;;4911304;28;45375;-60
2023/01/30 08:21:23;;;;;;;1.65;1.23;;;14.90;45.30;;;;;;4908987;28;45451;-57
2023/01/30 08:23:48;;;;;;;1.30;1.20;;;15.00;45.40;;;;;;4910017;28;47144;-59
2023/01/30 08:26:14;;;;;;;1.83;1.40;;;15.00;45.60;;;;;;4905744;28;45288;-59
2023/01/30 08:28:39;;;;;;;2.00;1.27;;;15.00;45.70;;;;;;4914771;28;44816;-58
2023/01/30 08:31:10;;;;;;;1.50;1.30;;;15.20;45.60;;;;;;4916974;28;45287;-60
2023/01/30 08:33:35;;;;;;;1.75;1.42;;;15.30;45.40;;;;;;4879971;28;45257;-59
2023/01/30 08:36:01;;;;;;;4.88;1.48;;;15.40;45.30;;;;;;4913019;28;45292;-60
2023/01/30 08:38:26;;;;;;;1.58;1.30;;;15.60;45.20;;;;;;4907281;28;45394;-59
2023/01/30 08:40:52;;;;;;;2.00;1.30;;;15.80;45.00;;;;;;4907516;28;44659;-60
2023/01/30 08:43:17;;;;;;;1.52;1.30;;;16.00;44.90;;;;;;4906945;28;45417;-61
2023/01/30 08:45:43;;;;;;;2.38;1.27;;;16.10;44.70;;;;;;4911183;28;45383;-59
2023/01/30 08:48:08;;;;;;;1.20;1.08;;;16.30;44.60;;;;;;4909210;28;45231;-60
2023/01/30 08:50:34;;;;;;;2.15;1.10;;;16.40;44.60;;;;;;4908199;28;45111;-59
2023/01/30 08:53:04;;;;;;;1.83;1.13;;;16.50;44.40;;;;;;4906596;28;46015;-60
2023/01/30 08:55:30;;;;;;;3.53;1.25;;;16.70;44.30;;;;;;4906618;28;45304;-61
2023/01/30 08:57:55;;;;;;;1.30;1.08;;;16.80;44.20;;;;;;4908429;28;45694;-60
2023/01/30 09:00:21;;;;;;;2.05;1.00;;;16.90;44.10;;;;;;4907676;28;45590;-60
2023/01/30 09:02:47;;;;;;;2.03;1.13;;;17.10;44.10;;;;;;4908582;28;45760;-59
2023/01/30 09:05:12;;;;;;;1.40;1.10;;;17.10;44.00;;;;;;4909047;28;45275;-61
2023/01/30 09:07:38;;;;;;;1.58;0.95;;;17.20;43.90;;;;;;4910490;28;45275;-60
2023/01/30 09:10:04;;;;;;;1.83;1.10;;;17.10;44.10;;;;;;4910273;28;45196;-61
2023/01/30 09:12:30;;;;;;;1.00;0.90;;;17.10;44.30;;;;;;4912069;28;45618;-60
2023/01/30 09:14:57;;;;;;;1.50;1.17;;;17.20;44.30;;;;;;4874368;28;45699;-60
2023/01/30 09:17:23;;;;;;;1.10;1.00;;;17.30;44.10;;;;;;4911499;28;45297;-60
2023/01/30 09:19:48;;;;;;;1.10;1.02;;;17.40;44.00;;;;;;4912440;28;45399;-59
2023/01/30 09:22:15;;;;;;;1.42;1.20;;;17.60;43.90;;;;;;4909136;28;46574;-61
2023/01/30 09:24:41;;;;;;;3.05;0.73;;;17.80;43.70;;;;;;4892235;28;45308;-60
2023/01/30 09:27:06;;;;;;;1.58;1.10;;;17.80;43.60;;;;;;4913093;28;45275;-61
2023/01/30 09:29:32;;;;;;;1.10;1.00;;;18.00;43.50;;;;;;4909470;28;45629;-60
2023/01/30 09:31:57;;;;;;;2.25;1.20;;;18.10;43.40;;;;;;4916705;28;45727;-60
2023/01/30 09:34:26;;;;;;;1.15;0.93;;;18.20;43.20;;;;;;4899040;28;45249;-57
2023/01/30 09:36:55;;;;;;;1.15;0.88;;;18.30;43.30;;;;;;4913869;28;45700;-61
2023/01/30 09:39:21;;;;;;;1.02;0.80;;;18.40;43.10;;;;;;4911390;28;45140;-61
2023/01/30 09:42:04;;;;;;;2.38;1.10;;;18.50;42.90;;;;;;4909885;28;45259;-61
2023/01/30 09:44:33;;;;;;;2.90;0.90;;;18.60;42.70;;;;;;4914909;28;45270;-57
2023/01/30 09:47:22;;;;;;;1.40;0.75;;;18.60;43.00;;;;;;4912803;28;45434;-60
2023/01/30 09:50:05;;;;;;;0.80;0.73;;;18.60;42.50;;;;;;4892733;28;45596;-60
2023/01/30 09:52:52;;;;;;;0.70;0.60;;;18.50;42.90;;;;;;4911691;28;46912;-59
2023/01/30 09:55:26;;;;;;;0.90;0.73;;;18.50;43.20;;;;;;4911408;28;45227;-59
2023/01/30 09:57:52;;;;;;;1.17;0.85;;;18.60;43.30;;;;;;4897763;28;45709;-58
2023/01/30 10:00:35;;;;;;;0.80;0.70;;;18.70;43.40;;;;;;4911006;28;45110;-59
2023/01/30 10:03:07;;;;;;;0.82;0.80;;;18.80;43.00;;;;;;4895197;28;45224;-61
2023/01/30 10:05:48;;;;;;;1.77;1.15;;;18.90;43.00;;;;;;4904464;28;45681;-58
2023/01/30 10:08:57;;;;;;;2.08;0.82;;;19.10;42.50;;;;;;4904203;28;45455;-60
2023/01/30 10:11:48;;;;;;;1.73;0.70;;;19.20;42.10;;;;;;4901897;28;45319;-59
2023/01/30 10:14:27;;;;;;;0.82;0.80;;;19.40;43.00;;;;;;4906143;28;46908;-59
2023/01/30 10:17:38;;;;;;;0.80;0.80;;;19.50;42.50;;;;;;4907302;28;44908;-60
2023/01/30 10:20:19;;;;;;;1.40;1.10;;;19.60;41.90;;;;;;4891530;28;45388;-62
2023/01/30 10:22:55;;;;;;;1.00;0.90;;;19.70;42.00;;;;;;4906786;28;45357;-61
2023/01/30 10:25:37;;;;;;;1.17;0.93;;;19.80;42.10;;;;;;4905576;28;45828;-61
2023/01/30 10:28:22;;;;;;;1.60;0.90;;;20.00;41.90;;;;;;4915803;28;45108;-59
2023/01/30 10:30:48;;;;;;;0.80;0.80;;;20.10;42.00;;;;;;4895934;28;45109;-60
2023/01/30 10:33:23;;;;;;;1.20;0.85;;;20.20;41.90;;;;;;4911253;28;45569;-59
2023/01/30 10:36:03;;;;;;;1.25;0.90;;;20.30;41.60;;;;;;4891134;28;47465;-59
2023/01/30 10:38:30;;;;;;;0.98;0.80;;;20.40;41.50;;;;;;4897476;28;45559;-58
2023/01/30 10:41:19;;;;;;;0.65;0.65;;;20.50;41.70;;;;;;4912644;28;45586;-61
2023/01/30 10:43:47;;;;;;;0.85;0.75;;;20.60;41.20;;;;;;4907850;28;45171;-60
2023/01/30 10:46:19;;;;;;;2.78;0.93;;;20.60;41.60;;;;;;4906197;28;45968;-59
2023/01/30 10:48:58;;;;;;;1.33;0.68;;;20.60;41.30;;;;;;4911703;28;44595;-59
2023/01/30 10:51:44;;;;;;;0.80;0.80;;;20.60;41.40;;;;;;4913172;28;45303;-62
2023/01/30 10:54:51;;;;;;;1.00;0.80;;;20.50;41.40;;;;;;4909227;28;45578;-61
2023/01/30 10:57:40;;;;;;;0.90;0.70;;;20.50;41.50;;;;;;4909722;28;46476;-59
2023/01/30 11:00:26;;;;;;;0.52;0.50;;;20.60;41.80;;;;;;4913993;28;45295;-61
2023/01/30 11:03:01;;;;;;;0.80;0.70;;;20.70;41.70;;;;;;4894108;28;44886;-60
2023/01/30 11:05:30;;;;;;;0.68;0.68;;;20.80;41.70;;;;;;4909316;28;44803;-59
2023/01/30 11:07:56;;;;;;;0.55;0.55;;;20.90;41.60;;;;;;4898680;28;46143;-60
2023/01/30 11:10:26;;;;;;;1.52;0.95;;;20.90;41.40;;;;;;4896913;28;45250;-57
2023/01/30 11:12:59;;;;;;;1.13;0.88;;;21.10;41.30;;;;;;4907475;28;45802;-57
2023/01/30 11:15:41;;;;;;;1.00;0.70;;;21.20;41.10;;;;;;4910842;28;45820;-58
2023/01/30 11:18:06;;;;;;;0.70;0.60;;;21.20;40.70;;;;;;4907822;28;46036;-59
2023/01/30 11:20:37;;;;;;;1.20;0.70;;;21.30;40.90;;;;;;4907048;28;46157;-57
2023/01/30 11:23:05;;;;;;;0.63;0.60;;;21.30;40.90;;;;;;4908477;28;44723;-60
2023/01/30 11:25:31;;;;;;;1.33;0.60;;;21.40;40.90;;;;;;4913264;28;45283;-59
2023/01/30 11:28:01;;;;;;;0.57;0.50;;;21.50;40.90;;;;;;4910918;28;45264;-55
2023/01/30 11:30:35;;;;;;;0.77;0.65;;;21.60;40.70;;;;;;4908928;28;45165;-59
2023/01/30 11:33:05;;;;;;;0.70;0.68;;;21.60;40.50;;;;;;4914723;28;45362;-61
2023/01/30 11:35:53;;;;;;;1.30;0.60;;;21.60;40.50;;;;;;4892116;28;45114;-60
2023/01/30 11:38:29;;;;;;;0.68;0.68;;;21.70;40.10;;;;;;4904911;28;48310;-62
2023/01/30 11:41:04;;;;;;;0.70;0.60;;;21.80;40.20;;;;;;4911521;28;45389;-61
2023/01/30 11:43:31;;;;;;;0.75;0.70;;;21.90;40.20;;;;;;4906691;28;45281;-61
2023/01/30 11:45:57;;;;;;;1.10;0.80;;;21.90;40.30;;;;;;4906008;28;46179;-61
2023/01/30 11:48:26;;;;;;;0.82;0.70;;;22.00;40.30;;;;;;4906596;28;46879;-61
2023/01/30 11:50:56;;;;;;;0.80;0.80;;;22.00;40.30;;;;;;4906947;28;45740;-61
2023/01/30 11:53:43;;;;;;;1.73;0.63;;;22.00;40.10;;;;;;4905878;28;44893;-67
2023/01/30 11:56:31;;;;;;;0.60;0.60;;;22.00;39.70;;;;;;4905246;28;45492;-61
2023/01/30 11:59:48;;;;;;;1.92;0.68;;;21.90;40.00;;;;;;4904287;28;45374;-58
2023/01/30 12:02:19;;;;;;;0.65;0.50;;;21.70;40.30;;;;;;4880151;28;46014;-60
2023/01/30 12:04:45;;;;;;;0.60;0.60;;;21.60;40.90;;;;;;4908364;28;45235;-64
2023/01/30 12:07:15;;;;;;;1.73;0.60;;;21.60;41.10;;;;;;4906169;28;45269;-60
2023/01/30 12:09:41;;;;;;;0.90;0.55;;;21.70;40.90;;;;;;4905823;28;45610;-63
2023/01/30 12:12:31;;;;;;;1.00;0.63;;;21.70;40.90;;;;;;4908882;28;44743;-60
2023/01/30 12:15:12;;;;;;;1.02;0.40;;;21.90;40.50;;;;;;4905004;28;45189;-59
2023/01/30 12:18:02;;;;;;;0.50;0.40;;;21.90;40.70;;;;;;4893930;28;45419;-61
2023/01/30 12:20:29;;;;;;;0.55;0.40;;;21.90;40.60;;;;;;4920815;28;46734;-63
2023/01/30 12:23:10;;;;;;;1.65;0.50;;;22.10;40.70;;;;;;4909498;28;45707;-61
2023/01/30 12:25:41;;;;;;;0.52;0.50;;;22.10;40.30;;;;;;4906430;28;45371;-64
2023/01/30 12:28:13;;;;;;;0.65;0.60;;;22.10;40.60;;;;;;4909111;28;45153;-58
2023/01/30 12:30:43;;;;;;;0.50;0.50;;;22.20;40.60;;;;;;4893356;28;45545;-61
2023/01/30 12:33:11;;;;;;;1.08;0.50;;;22.20;40.70;;;;;;4908922;28;45163;-65
2023/01/30 12:35:46;;;;;;;0.50;0.50;;;22.20;40.70;;;;;;4902801;28;45557;-68
2023/01/30 12:38:38;;;;;;;0.40;0.40;;;22.20;40.60;;;;;;4905580;28;45556;-62
2023/01/30 12:41:14;;;;;;;0.60;0.38;;;22.30;40.50;;;;;;4905695;28;45176;-61
2023/01/30 12:43:58;;;;;;;0.38;0.38;;;22.20;40.70;;;;;;4906683;28;45279;-60
2023/01/30 12:46:43;;;;;;;0.40;0.40;;;22.20;40.50;;;;;;4905591;28;45451;-65
2023/01/30 12:49:30;;;;;;;0.30;0.30;;;22.30;40.90;;;;;;4905672;28;45311;-64
2023/01/30 12:52:24;;;;;;;0.60;0.50;;;22.30;40.60;;;;;;4901968;28;46215;-61
2023/01/30 12:55:01;;;;;;;0.50;0.50;;;22.30;40.80;;;;;;4902520;28;45812;-60
2023/01/30 12:57:39;;;;;;;0.60;0.57;;;22.30;40.80;;;;;;4902632;28;45433;-61
2023/01/30 13:00:23;;;;;;;0.40;0.40;;;22.40;40.60;;;;;;4907329;28;45987;-62
2023/01/30 13:03:04;;;;;;;0.55;0.40;;;22.40;40.70;;;;;;4891984;28;45660;-61
2023/01/30 13:05:42;;;;;;;0.55;0.50;;;22.40;40.80;;;;;;4911203;28;45318;-62
2023/01/30 13:08:40;;;;;;;1.50;0.60;;;22.40;40.80;;;;;;4907268;28;45183;-62
2023/01/30 13:11:36;;;;;;;0.50;0.50;;;22.20;40.30;;;;;;4879961;28;45805;-61
2023/01/30 13:14:14;;;;;;;0.63;0.50;;;22.20;40.80;;;;;;4912695;28;46153;-60
2023/01/30 13:16:53;;;;;;;0.63;0.57;;;22.20;41.10;;;;;;4908228;28;45419;-63
2023/01/30 13:19:26;;;;;;;0.80;0.55;;;22.30;41.00;;;;;;4908119;28;44750;-61
2023/01/30 13:22:04;;;;;;;0.65;0.60;;;22.30;41.00;;;;;;4895780;28;45180;-64
2023/01/30 13:24:46;;;;;;;0.63;0.40;;;22.40;40.70;;;;;;4908937;28;46652;-62
2023/01/30 13:27:16;;;;;;;0.85;0.43;;;22.40;40.80;;;;;;4891252;28;45591;-60
2023/01/30 13:29:41;;;;;;;0.50;0.38;;;22.40;40.80;;;;;;4895834;28;46819;-61
2023/01/30 13:32:31;;;;;;;0.40;0.40;;;22.50;40.90;;;;;;4894010;28;45214;-62
2023/01/30 13:34:57;;;;;;;0.75;0.60;;;22.50;40.70;;;;;;4907899;28;45932;-63
2023/01/30 13:37:22;;;;;;;1.25;0.65;;;22.50;40.90;;;;;;4891729;28;45257;-63
2023/01/30 13:40:01;;;;;;;0.40;0.40;;;22.50;41.00;;;;;;4908954;28;45218;-63
2023/01/30 13:42:50;;;;;;;0.65;0.32;;;22.50;40.90;;;;;;4908435;28;45483;-67
2023/01/30 13:45:20;;;;;;;0.68;0.47;;;22.60;40.70;;;;;;4892297;28;47048;-64
2023/01/30 13:48:14;;;;;;;0.70;0.40;;;22.60;41.00;;;;;;4908841;28;44966;-60
2023/01/30 13:50:46;;;;;;;0.40;0.40;;;22.60;40.80;;;;;;4910560;28;45902;-62
2023/01/30 13:53:26;;;;;;;0.47;0.47;;;22.70;41.00;;;;;;4911320;28;45391;-60
2023/01/30 13:55:57;;;;;;;0.60;0.40;;;22.70;40.70;;;;;;4909382;28;45951;-63
2023/01/30 13:58:54;;;;;;;0.40;0.40;;;22.70;40.90;;;;;;4909532;28;45290;-57
2023/01/30 14:01:21;;;;;;;0.70;0.50;;;22.80;40.60;;;;;;4902254;28;45383;-63
2023/01/30 14:03:47;;;;;;;0.43;0.40;;;22.80;40.90;;;;;;4893305;28;45861;-62
2023/01/30 14:06:23;;;;;;;0.55;0.38;;;22.80;40.90;;;;;;4908958;28;46471;-62
2023/01/30 14:08:52;;;;;;;0.40;0.40;;;22.80;40.90;;;;;;4910497;28;44950;-63
2023/01/30 14:11:29;;;;;;;1.45;0.70;;;22.80;40.90;;;;;;4909200;28;45400;-61
2023/01/30 14:14:31;;;;;;;1.27;0.57;;;22.90;40.70;;;;;;4893411;28;45453;-62
2023/01/30 14:17:30;;;;;;;0.60;0.40;;;23.00;40.60;;;;;;4887705;28;45338;-62
2023/01/30 14:20:11;;;;;;;0.30;0.30;;;22.90;40.80;;;;;;4878869;28;45502;-61
2023/01/30 14:23:10;;;;;;;0.52;0.40;;;23.00;40.70;;;;;;4911609;28;44678;-63
2023/01/30 14:25:43;;;;;;;0.35;0.35;;;23.00;40.60;;;;;;4902804;28;45332;-60
2023/01/30 14:28:08;;;;;;;0.50;0.38;;;23.00;40.70;;;;;;4911098;28;45521;-62
2023/01/30 14:30:37;;;;;;;0.40;0.40;;;23.10;40.80;;;;;;4908696;28;48167;-65
2023/01/30 14:33:23;;;;;;;0.30;0.30;;;23.10;40.70;;;;;;4907796;28;46102;-64
2023/01/30 14:35:57;;;;;;;0.47;0.40;;;23.20;40.40;;;;;;4899992;28;44787;-64
2023/01/30 14:38:23;;;;;;;0.38;0.30;;;23.20;40.60;;;;;;4910667;28;45459;-63
2023/01/30 14:41:01;;;;;;;0.50;0.50;;;23.20;40.70;;;;;;4910481;28;45536;-63
2023/01/30 14:43:41;;;;;;;1.27;0.63;;;23.20;40.50;;;;;;4908667;28;44993;-64
2023/01/30 14:46:16;;;;;;;0.50;0.50;;;23.10;40.40;;;;;;4911378;28;45235;-64
2023/01/30 14:48:48;;;;;;;1.63;0.30;;;23.00;40.50;;;;;;4911894;28;46912;-66
2023/01/30 14:51:39;;;;;;;0.30;0.30;;;22.90;41.00;;;;;;4912231;28;46323;-63
2023/01/30 14:54:11;;;;;;;0.80;0.45;;;22.90;40.90;;;;;;4910888;28;46214;-62
2023/01/30 14:56:41;;;;;;;0.50;0.50;;;22.90;40.90;;;;;;4911310;28;45467;-64
2023/01/30 14:59:23;;;;;;;0.30;0.30;;;23.00;41.00;;;;;;4915173;28;46246;-61
2023/01/30 15:01:52;;;;;;;0.40;0.32;;;23.00;40.80;;;;;;4909171;28;45284;-64
2023/01/30 15:04:18;;;;;;;0.32;0.32;;;23.00;40.80;;;;;;4913902;28;45288;-66
2023/01/30 15:06:43;;;;;;;0.82;0.60;;;23.10;40.90;;;;;;4897262;28;45014;-67
2023/01/30 15:09:10;;;;;;;0.50;0.50;;;23.10;40.90;;;;;;4902624;28;45483;-63
2023/01/30 15:11:36;;;;;;;0.98;0.60;;;23.20;40.90;;;;;;4912281;28;46101;-61
2023/01/30 15:14:18;;;;;;;0.47;0.47;;;23.20;40.80;;;;;;4914550;28;44682;-64
2023/01/30 15:17:11;;;;;;;0.30;0.30;;;23.20;40.60;;;;;;4907959;28;44723;-63
2023/01/30 15:20:11;;;;;;;0.47;0.47;;;23.20;40.70;;;;;;4909437;28;49784;-67
2023/01/30 15:23:03;;;;;;;0.30;0.30;;;23.30;40.80;;;;;;4880258;28;45196;-68
2023/01/30 15:25:38;;;;;;;0.77;0.50;;;23.30;40.60;;;;;;4906435;28;45595;-62
2023/01/30 15:28:15;;;;;;;0.77;0.40;;;23.30;40.80;;;;;;4906179;28;45359;-64
2023/01/30 15:30:55;;;;;;;0.40;0.38;;;23.30;40.80;;;;;;4904865;28;45566;-63
2023/01/30 15:33:22;;;;;;;0.30;0.30;;;23.30;40.70;;;;;;4886753;28;48532;-61
2023/01/30 15:35:47;;;;;;;0.40;0.40;;;23.30;40.80;;;;;;4908345;28;45319;-63
2023/01/30 15:38:30;;;;;;;0.60;0.40;;;23.30;40.90;;;;;;4908875;28;45327;-65
2023/01/30 15:41:00;;;;;;;0.40;0.40;;;23.30;40.70;;;;;;4891538;28;46448;-61
2023/01/30 15:43:53;;;;;;;0.55;0.30;;;23.30;40.90;;;;;;4904513;28;44867;-64
2023/01/30 15:46:22;;;;;;;0.30;0.30;;;23.30;40.90;;;;;;4905629;28;45575;-61
2023/01/30 15:48:57;;;;;;;0.40;0.40;;;23.30;41.00;;;;;;4890786;28;44769;-61
2023/01/30 15:51:27;;;;;;;0.45;0.40;;;23.30;40.90;;;;;;4913272;28;46717;-62
2023/01/30 15:53:53;;;;;;;0.40;0.40;;;23.30;40.90;;;;;;4895119;28;45294;-65
2023/01/30 15:56:20;;;;;;;0.38;0.20;;;23.30;41.00;;;;;;4913260;28;45287;-62
2023/01/30 15:58:46;;;;;;;0.35;0.30;;;23.30;41.00;;;;;;4910927;28;45646;-62
2023/01/30 16:01:18;;;;;;;0.32;0.30;;;23.30;41.00;;;;;;4907454;28;45606;-61
2023/01/30 16:03:44;;;;;;;0.60;0.40;;;23.30;41.00;;;;;;4891091;28;45217;-62
2023/01/30 16:06:33;;;;;;;0.52;0.40;;;23.30;41.10;;;;;;4891541;28;45576;-64
2023/01/30 16:09:00;;;;;;;0.30;0.30;;;23.30;40.80;;;;;;4904632;28;45143;-61
2023/01/30 16:11:34;;;;;;;0.88;0.50;;;23.30;41.10;;;;;;4905325;28;45668;-71
2023/01/30 16:13:59;;;;;;;1.38;0.50;;;23.30;40.90;;;;;;4905886;28;45288;-67
2023/01/30 16:16:25;;;;;;;0.30;0.30;;;23.20;40.90;;;;;;4906423;28;45151;-68
2023/01/30 16:18:52;;;;;;;0.45;0.45;;;23.10;40.90;;;;;;4907000;28;45524;-64
2023/01/30 16:21:25;;;;;;;0.40;0.40;;;23.00;40.80;;;;;;4906751;28;46422;-65
2023/01/30 16:23:57;;;;;;;0.65;0.30;;;22.90;41.00;;;;;;4909056;28;45304;-64
2023/01/30 16:26:23;;;;;;;1.10;0.60;;;22.80;41.10;;;;;;4893748;28;45229;-63
2023/01/30 16:28:48;;;;;;;0.77;0.50;;;22.60;41.30;;;;;;4907669;28;45267;-66
2023/01/30 16:31:14;;;;;;;0.45;0.45;;;22.50;41.50;;;;;;4907460;28;45462;-64
2023/01/30 16:33:40;;;;;;;0.60;0.60;;;22.40;41.60;;;;;;4887233;28;45454;-64
2023/01/30 16:36:20;;;;;;;0.52;0.52;;;22.30;41.80;;;;;;4890597;28;45419;-62
2023/01/30 16:38:49;;;;;;;1.05;0.60;;;22.20;41.80;;;;;;4909364;28;45520;-65
2023/01/30 16:41:35;;;;;;;0.50;0.50;;;22.10;42.00;;;;;;4910248;28;45841;-62
2023/01/30 16:44:18;;;;;;;0.50;0.50;;;22.00;42.10;;;;;;4907804;28;45482;-64
2023/01/30 16:47:04;;;;;;;0.38;0.38;;;21.90;42.30;;;;;;4911984;28;45379;-63
2023/01/30 16:49:38;;;;;;;0.60;0.50;;;21.80;42.50;;;;;;4905782;28;44754;-65
2023/01/30 16:52:08;;;;;;;0.45;0.45;;;21.60;42.50;;;;;;4907548;28;45642;-68
2023/01/30 16:54:33;;;;;;;0.40;0.40;;;21.60;42.70;;;;;;4909565;28;45399;-64
2023/01/30 16:56:59;;;;;;;2.45;0.57;;;21.50;42.90;;;;;;4879487;28;45559;-68
2023/01/30 16:59:34;;;;;;;0.65;0.52;;;21.40;43.00;;;;;;4910051;28;45829;-66
2023/01/30 17:02:01;;;;;;;0.73;0.60;;;21.30;43.10;;;;;;4894682;28;47278;-70
2023/01/30 17:04:31;;;;;;;1.85;0.60;;;21.20;43.20;;;;;;4892329;28;45738;-69
2023/01/30 17:07:03;;;;;;;0.82;0.50;;;21.10;43.30;;;;;;4911481;28;44860;-63
2023/01/30 17:09:35;;;;;;;0.73;0.60;;;21.00;43.40;;;;;;4906168;28;45476;-68
2023/01/30 17:12:16;;;;;;;0.30;0.30;;;20.90;43.50;;;;;;4906768;28;46868;-67
2023/01/30 17:14:42;;;;;;;1.10;0.63;;;20.80;43.50;;;;;;4908613;28;46680;-69